sensor_id;sensor_type;location;lat;lon;timestamp;pressure;altitude;pressure_sealevel;temperature;humidity
1776;BME280;885;42.626;23.200;2023-02-22T00:00:11;78697.97;;;7.18;69.10
1776;BME280;885;42.626;23.200;2023-02-22T00:02:48;78720.84;;;7.16;68.70
1776;BME280;885;42.626;23.200;2023-02-22T00:05:15;78603.63;;;7.03;68.63
1776;BME280;885;42.626;23.200;2023-02-22T00:07:46;78566.34;;;6.94;68.33
1776;BME280;885;42.626;23.200;2023-02-22T00:10:14;78562.88;;;6.93;70.14
1776;BME280;885;42.626;23.200;2023-02-22T00:12:46;78530.66;;;6.74;69.94
1776;BME280;885;42.626;23.200;2023-02-22T00:15:14;78384.44;;;6.54;70.27
1776;BME280;885;42.626;23.200;2023-02-22T00:17:42;78414.47;;;6.65;70.02
1776;BME280;885;42.626;23.200;2023-02-22T00:20:11;78411.31;;;6.71;68.48
1776;BME280;885;42.626;23.200;2023-02-22T00:22:39;78462.06;;;6.71;68.35
1776;BME280;885;42.626;23.200;2023-02-22T00:25:08;78437.66;;;6.70;69.45
1776;BME280;885;42.626;23.200;2023-02-22T00:27:35;78441.38;;;6.73;68.98
1776;BME280;885;42.626;23.200;2023-02-22T00:30:02;78417.28;;;6.74;68.36
1776;BME280;885;42.626;23.200;2023-02-22T00:32:29;78370.97;;;6.64;69.33
1776;BME280;885;42.626;23.200;2023-02-22T00:34:56;78397.88;;;6.63;69.82
1776;BME280;885;42.626;23.200;2023-02-22T00:37:23;78393.50;;;6.64;70.09
1776;BME280;885;42.626;23.200;2023-02-22T00:39:51;78482.13;;;6.65;71.56
1776;BME280;885;42.626;23.200;2023-02-22T00:42:19;78408.84;;;6.60;70.86
1776;BME280;885;42.626;23.200;2023-02-22T00:44:46;78460.19;;;6.70;69.50
1776;BME280;885;42.626;23.200;2023-02-22T00:47:13;78454.88;;;6.68;70.37
1776;BME280;885;42.626;23.200;2023-02-22T00:49:39;78388.19;;;6.62;69.62
1776;BME280;885;42.626;23.200;2023-02-22T00:52:06;78319.94;;;6.57;69.28
1776;BME280;885;42.626;23.200;2023-02-22T00:54:33;78254.25;;;6.45;69.25
1776;BME280;885;42.626;23.200;2023-02-22T00:57:00;78215.78;;;6.38;69.91
1776;BME280;885;42.626;23.200;2023-02-22T00:59:29;78351.91;;;6.51;70.08
1776;BME280;885;42.626;23.200;2023-02-22T01:01:56;78301.50;;;6.49;70.39
1776;BME280;885;42.626;23.200;2023-02-22T01:04:23;78313.75;;;6.43;70.51
1776;BME280;885;42.626;23.200;2023-02-22T01:06:50;78256.81;;;6.28;72.33
1776;BME280;885;42.626;23.200;2023-02-22T01:09:18;78163.66;;;6.12;72.04
1776;BME280;885;42.626;23.200;2023-02-22T01:11:46;78148.94;;;6.12;72.51
1776;BME280;885;42.626;23.200;2023-02-22T01:14:12;78156.44;;;6.13;72.14
1776;BME280;885;42.626;23.200;2023-02-22T01:16:42;78152.38;;;6.12;71.82
1776;BME280;885;42.626;23.200;2023-02-22T01:19:08;78169.28;;;6.12;72.00
1776;BME280;885;42.626;23.200;2023-02-22T01:21:38;78154.88;;;6.14;71.86
1776;BME280;885;42.626;23.200;2023-02-22T01:24:05;78098.59;;;6.05;72.04
1776;BME280;885;42.626;23.200;2023-02-22T01:26:32;78101.50;;;5.96;73.08
1776;BME280;885;42.626;23.200;2023-02-22T01:28:59;78105.81;;;6.04;72.24
1776;BME280;885;42.626;23.200;2023-02-22T01:31:26;77986.22;;;5.74;74.02
1776;BME280;885;42.626;23.200;2023-02-22T01:33:56;78030.56;;;5.82;73.58
1776;BME280;885;42.626;23.200;2023-02-22T01:36:22;77998.00;;;5.88;72.79
1776;BME280;885;42.626;23.200;2023-02-22T01:38:49;78072.41;;;5.93;72.93
1776;BME280;885;42.626;23.200;2023-02-22T01:41:16;77934.94;;;5.73;72.98
1776;BME280;885;42.626;23.200;2023-02-22T01:43:43;77934.31;;;5.73;72.47
1776;BME280;885;42.626;23.200;2023-02-22T01:46:19;77990.53;;;5.86;72.64
1776;BME280;885;42.626;23.200;2023-02-22T01:48:49;78034.28;;;5.90;72.77
1776;BME280;885;42.626;23.200;2023-02-22T01:51:21;78015.53;;;5.88;72.51
1776;BME280;885;42.626;23.200;2023-02-22T01:53:52;77998.69;;;5.79;73.80
1776;BME280;885;42.626;23.200;2023-02-22T01:56:22;78036.78;;;5.87;72.98
1776;BME280;885;42.626;23.200;2023-02-22T01:58:54;78086.13;;;6.00;72.27
1776;BME280;885;42.626;23.200;2023-02-22T02:01:24;78085.81;;;5.97;71.74
1776;BME280;885;42.626;23.200;2023-02-22T02:03:54;78079.88;;;5.99;71.14
1776;BME280;885;42.626;23.200;2023-02-22T02:06:25;78023.66;;;5.90;71.44
1776;BME280;885;42.626;23.200;2023-02-22T02:08:57;77987.91;;;5.98;71.10
1776;BME280;885;42.626;23.200;2023-02-22T02:11:26;78032.00;;;5.99;70.97
1776;BME280;885;42.626;23.200;2023-02-22T02:13:56;78072.34;;;6.02;71.21
1776;BME280;885;42.626;23.200;2023-02-22T02:16:25;78047.34;;;6.00;70.95
1776;BME280;885;42.626;23.200;2023-02-22T02:18:53;78007.41;;;5.86;72.76
1776;BME280;885;42.626;23.200;2023-02-22T02:21:38;77969.34;;;5.74;73.13
1776;BME280;885;42.626;23.200;2023-02-22T02:24:31;78002.41;;;5.82;72.52
1776;BME280;885;42.626;23.200;2023-02-22T02:27:11;77985.22;;;5.80;72.34
1776;BME280;885;42.626;23.200;2023-02-22T02:32:44;77846.97;;;5.52;73.11
1776;BME280;885;42.626;23.200;2023-02-22T02:35:18;77770.78;;;5.40;73.88
1776;BME280;885;42.626;23.200;2023-02-22T02:37:56;77778.00;;;5.39;73.40
1776;BME280;885;42.626;23.200;2023-02-22T02:40:30;77800.22;;;5.37;72.99
1776;BME280;885;42.626;23.200;2023-02-22T02:43:06;77736.88;;;5.29;73.28
1776;BME280;885;42.626;23.200;2023-02-22T02:45:38;77757.72;;;5.34;73.05
1776;BME280;885;42.626;23.200;2023-02-22T02:48:11;77806.75;;;5.40;73.24
1776;BME280;885;42.626;23.200;2023-02-22T02:50:43;77816.38;;;5.45;73.26
1776;BME280;885;42.626;23.200;2023-02-22T02:53:13;77845.09;;;5.50;73.04
1776;BME280;885;42.626;23.200;2023-02-22T02:55:42;77782.00;;;5.45;73.43
1776;BME280;885;42.626;23.200;2023-02-22T02:58:16;77849.47;;;5.49;72.99
1776;BME280;885;42.626;23.200;2023-02-22T03:00:43;77834.22;;;5.44;73.61
1776;BME280;885;42.626;23.200;2023-02-22T03:03:27;77819.00;;;5.34;74.96
1776;BME280;885;42.626;23.200;2023-02-22T03:06:11;77775.63;;;5.24;75.38
1776;BME280;885;42.626;23.200;2023-02-22T03:08:44;77829.06;;;5.24;75.13
1776;BME280;885;42.626;23.200;2023-02-22T03:11:17;77796.56;;;5.25;74.70
1776;BME280;885;42.626;23.200;2023-02-22T03:13:50;77806.44;;;5.42;73.70
1776;BME280;885;42.626;23.200;2023-02-22T03:16:28;77991.31;;;5.59;74.85
1776;BME280;885;42.626;23.200;2023-02-22T03:19:05;78043.41;;;5.77;73.63
1776;BME280;885;42.626;23.200;2023-02-22T03:21:40;78051.81;;;5.81;75.20
1776;BME280;885;42.626;23.200;2023-02-22T03:24:14;78121.63;;;5.72;76.23
1776;BME280;885;42.626;23.200;2023-02-22T03:26:46;78141.94;;;5.72;75.98
1776;BME280;885;42.626;23.200;2023-02-22T03:29:17;78145.66;;;5.84;74.42
1776;BME280;885;42.626;23.200;2023-02-22T03:31:50;78127.13;;;5.99;72.27
1776;BME280;885;42.626;23.200;2023-02-22T03:34:21;78247.53;;;6.07;74.65
1776;BME280;885;42.626;23.200;2023-02-22T03:36:53;78245.06;;;6.01;74.87
1776;BME280;885;42.626;23.200;2023-02-22T03:39:23;78311.38;;;6.00;75.20
1776;BME280;885;42.626;23.200;2023-02-22T03:41:57;78282.25;;;6.06;73.79
1776;BME280;885;42.626;23.200;2023-02-22T03:44:28;78291.94;;;6.11;73.04
1776;BME280;885;42.626;23.200;2023-02-22T03:47:00;78299.13;;;6.10;72.66
1776;BME280;885;42.626;23.200;2023-02-22T03:49:34;78195.94;;;5.95;73.53
1776;BME280;885;42.626;23.200;2023-02-22T03:52:03;78129.38;;;5.85;73.83
1776;BME280;885;42.626;23.200;2023-02-22T03:54:30;78145.34;;;5.77;74.64
1776;BME280;885;42.626;23.200;2023-02-22T03:57:01;78165.06;;;5.73;74.92
1776;BME280;885;42.626;23.200;2023-02-22T03:59:31;78029.47;;;5.58;74.57
1776;BME280;885;42.626;23.200;2023-02-22T04:01:58;77992.53;;;5.65;73.30
1776;BME280;885;42.626;23.200;2023-02-22T04:04:24;78009.41;;;5.65;73.50
1776;BME280;885;42.626;23.200;2023-02-22T04:06:53;78040.28;;;5.74;73.49
1776;BME280;885;42.626;23.200;2023-02-22T04:09:20;77998.72;;;5.70;73.05
1776;BME280;885;42.626;23.200;2023-02-22T04:11:47;78096.25;;;5.76;73.92
1776;BME280;885;42.626;23.200;2023-02-22T04:14:14;78100.66;;;5.71;73.96
1776;BME280;885;42.626;23.200;2023-02-22T04:16:41;78043.06;;;5.83;70.79
1776;BME280;885;42.626;23.200;2023-02-22T04:19:07;78201.19;;;6.15;69.55
1776;BME280;885;42.626;23.200;2023-02-22T04:21:34;78317.19;;;6.38;69.94
1776;BME280;885;42.626;23.200;2023-02-22T04:24:03;78362.94;;;6.30;71.97
1776;BME280;885;42.626;23.200;2023-02-22T04:26:30;78331.34;;;6.20;72.37
1776;BME280;885;42.626;23.200;2023-02-22T04:28:57;78146.22;;;5.98;71.97
1776;BME280;885;42.626;23.200;2023-02-22T04:31:24;78195.31;;;5.99;71.65
1776;BME280;885;42.626;23.200;2023-02-22T04:33:51;78101.81;;;5.94;71.89
1776;BME280;885;42.626;23.200;2023-02-22T04:36:17;78092.19;;;5.84;72.46
1776;BME280;885;42.626;23.200;2023-02-22T04:38:46;77976.19;;;5.75;72.62
1776;BME280;885;42.626;23.200;2023-02-22T04:41:16;78028.13;;;5.71;72.97
1776;BME280;885;42.626;23.200;2023-02-22T04:43:43;78062.81;;;5.74;73.21
1776;BME280;885;42.626;23.200;2023-02-22T04:46:11;78010.31;;;5.68;73.04
1776;BME280;885;42.626;23.200;2023-02-22T04:48:38;77990.06;;;5.58;74.44
1776;BME280;885;42.626;23.200;2023-02-22T04:51:05;78051.94;;;5.63;74.97
1776;BME280;885;42.626;23.200;2023-02-22T04:53:33;78103.84;;;5.64;75.09
1776;BME280;885;42.626;23.200;2023-02-22T04:55:59;78053.19;;;5.59;74.16
1776;BME280;885;42.626;23.200;2023-02-22T04:58:28;78054.75;;;5.63;73.76
1776;BME280;885;42.626;23.200;2023-02-22T05:00:56;78103.19;;;5.63;75.14
1776;BME280;885;42.626;23.200;2023-02-22T05:03:22;78188.81;;;5.87;73.31
1776;BME280;885;42.626;23.200;2023-02-22T05:05:50;78286.03;;;6.00;73.59
1776;BME280;885;42.626;23.200;2023-02-22T05:08:17;78286.97;;;6.07;72.66
1776;BME280;885;42.626;23.200;2023-02-22T05:10:44;78302.88;;;6.18;71.14
1776;BME280;885;42.626;23.200;2023-02-22T05:13:11;78303.22;;;6.11;71.32
1776;BME280;885;42.626;23.200;2023-02-22T05:15:42;78177.53;;;5.87;73.21
1776;BME280;885;42.626;23.200;2023-02-22T05:18:09;78215.06;;;5.90;73.58
1776;BME280;885;42.626;23.200;2023-02-22T05:20:36;78199.44;;;5.82;73.75
1776;BME280;885;42.626;23.200;2023-02-22T05:23:03;78078.78;;;5.71;73.90
1776;BME280;885;42.626;23.200;2023-02-22T05:25:30;78114.44;;;5.68;73.30
1776;BME280;885;42.626;23.200;2023-02-22T05:27:59;77989.50;;;5.49;74.77
1776;BME280;885;42.626;23.200;2023-02-22T05:30:29;77980.78;;;5.46;74.90
1776;BME280;885;42.626;23.200;2023-02-22T05:32:58;77972.03;;;5.44;74.89
1776;BME280;885;42.626;23.200;2023-02-22T05:35:26;78008.59;;;5.48;74.64
1776;BME280;885;42.626;23.200;2023-02-22T05:37:53;77957.72;;;5.37;75.54
1776;BME280;885;42.626;23.200;2023-02-22T05:40:22;77956.47;;;5.36;75.72
1776;BME280;885;42.626;23.200;2023-02-22T05:42:49;78018.28;;;5.45;75.72
1776;BME280;885;42.626;23.200;2023-02-22T05:45:18;77986.47;;;5.33;75.45
1776;BME280;885;42.626;23.200;2023-02-22T05:47:45;78036.75;;;5.39;76.01
1776;BME280;885;42.626;23.200;2023-02-22T05:50:13;78030.84;;;5.37;76.53
1776;BME280;885;42.626;23.200;2023-02-22T05:52:41;78081.75;;;5.44;76.89
1776;BME280;885;42.626;23.200;2023-02-22T05:55:09;78119.53;;;5.54;76.12
1776;BME280;885;42.626;23.200;2023-02-22T05:57:36;78197.91;;;5.74;74.46
1776;BME280;885;42.626;23.200;2023-02-22T06:00:05;78258.88;;;5.80;75.86
1776;BME280;885;42.626;23.200;2023-02-22T06:02:32;78322.38;;;5.88;75.64
1776;BME280;885;42.626;23.200;2023-02-22T06:04:59;78440.28;;;6.04;75.02
1776;BME280;885;42.626;23.200;2023-02-22T06:07:27;78464.66;;;6.19;73.25
1776;BME280;885;42.626;23.200;2023-02-22T06:09:54;78516.94;;;6.31;72.49
1776;BME280;885;42.626;23.200;2023-02-22T06:12:21;78626.19;;;6.35;74.27
1776;BME280;885;42.626;23.200;2023-02-22T06:14:48;78665.63;;;6.40;73.86
1776;BME280;885;42.626;23.200;2023-02-22T06:17:15;78638.09;;;6.40;73.36
1776;BME280;885;42.626;23.200;2023-02-22T06:19:41;78598.00;;;6.40;72.71
1776;BME280;885;42.626;23.200;2023-02-22T06:22:14;78590.19;;;6.40;72.83
1776;BME280;885;42.626;23.200;2023-02-22T06:24:43;78562.31;;;6.48;71.28
1776;BME280;885;42.626;23.200;2023-02-22T06:27:10;78680.06;;;6.56;72.52
1776;BME280;885;42.626;23.200;2023-02-22T06:29:36;78694.47;;;6.54;72.47
1776;BME280;885;42.626;23.200;2023-02-22T06:32:04;78597.72;;;6.47;71.87
1776;BME280;885;42.626;23.200;2023-02-22T06:34:30;78601.16;;;6.43;73.55
1776;BME280;885;42.626;23.200;2023-02-22T06:36:57;78692.28;;;6.55;73.33
1776;BME280;885;42.626;23.200;2023-02-22T06:39:24;78720.16;;;6.57;72.81
1776;BME280;885;42.626;23.200;2023-02-22T06:41:53;78783.09;;;6.51;75.58
1776;BME280;885;42.626;23.200;2023-02-22T06:44:22;78772.16;;;6.58;74.52
1776;BME280;885;42.626;23.200;2023-02-22T06:46:49;78849.84;;;6.66;74.37
1776;BME280;885;42.626;23.200;2023-02-22T06:49:17;78928.22;;;6.79;73.19
1776;BME280;885;42.626;23.200;2023-02-22T06:51:45;78948.91;;;6.82;73.41
1776;BME280;885;42.626;23.200;2023-02-22T06:54:12;79082.16;;;6.96;73.96
1776;BME280;885;42.626;23.200;2023-02-22T06:56:39;79325.41;;;7.30;72.02
1776;BME280;885;42.626;23.200;2023-02-22T06:59:07;79303.13;;;7.28;72.88
1776;BME280;885;42.626;23.200;2023-02-22T07:01:34;79185.41;;;7.13;72.75
1776;BME280;885;42.626;23.200;2023-02-22T07:04:01;79246.53;;;7.10;74.94
1776;BME280;885;42.626;23.200;2023-02-22T07:06:28;79227.75;;;7.13;74.33
1776;BME280;885;42.626;23.200;2023-02-22T07:08:55;79279.59;;;7.25;73.99
1776;BME280;885;42.626;23.200;2023-02-22T07:11:21;79259.22;;;7.25;73.22
1776;BME280;885;42.626;23.200;2023-02-22T07:13:48;79309.06;;;7.26;73.37
1776;BME280;885;42.626;23.200;2023-02-22T07:16:17;79436.75;;;7.31;73.97
1776;BME280;885;42.626;23.200;2023-02-22T07:18:43;79466.94;;;7.37;74.58
1776;BME280;885;42.626;23.200;2023-02-22T07:21:10;79584.75;;;7.52;73.67
1776;BME280;885;42.626;23.200;2023-02-22T07:23:37;79556.50;;;7.52;74.17
1776;BME280;885;42.626;23.200;2023-02-22T07:26:04;79769.00;;;7.77;73.05
1776;BME280;885;42.626;23.200;2023-02-22T07:28:31;80238.66;;;8.36;71.72
1776;BME280;885;42.626;23.200;2023-02-22T07:30:58;80884.53;;;9.12;69.12
1776;BME280;885;42.626;23.200;2023-02-22T07:33:27;81991.91;;;10.34;65.08
1776;BME280;885;42.626;23.200;2023-02-22T07:35:54;83285.34;;;11.58;59.95
1776;BME280;885;42.626;23.200;2023-02-22T07:38:20;84712.09;;;12.76;57.05
1776;BME280;885;42.626;23.200;2023-02-22T07:40:47;85857.91;;;13.70;52.98
1776;BME280;885;42.626;23.200;2023-02-22T07:43:17;86632.94;;;14.40;50.12
1776;BME280;885;42.626;23.200;2023-02-22T07:45:46;88142.94;;;15.34;47.69
1776;BME280;885;42.626;23.200;2023-02-22T07:48:13;90516.63;;;16.66;45.23
1776;BME280;885;42.626;23.200;2023-02-22T07:50:42;91770.19;;;17.50;42.11
1776;BME280;885;42.626;23.200;2023-02-22T07:53:11;95366.94;;;19.00;39.93
1776;BME280;885;42.626;23.200;2023-02-22T07:55:38;98737.47;;;20.35;37.30
1776;BME280;885;42.626;23.200;2023-02-22T07:58:07;100111.00;;;20.97;36.53
1776;BME280;885;42.626;23.200;2023-02-22T08:00:35;96463.38;;;20.34;35.50
1776;BME280;885;42.626;23.200;2023-02-22T08:03:05;97792.06;;;20.72;36.09
1776;BME280;885;42.626;23.200;2023-02-22T08:05:34;99390.16;;;21.13;36.46
1776;BME280;885;42.626;23.200;2023-02-22T08:08:03;100580.53;;;21.63;35.75
1776;BME280;885;42.626;23.200;2023-02-22T08:10:32;101715.13;;;22.09;34.80
1776;BME280;885;42.626;23.200;2023-02-22T08:12:59;102489.22;;;22.51;33.61
1776;BME280;885;42.626;23.200;2023-02-22T08:15:28;105343.13;;;23.04;34.48
1776;BME280;885;42.626;23.200;2023-02-22T08:17:55;108047.00;;;23.89;32.76
1776;BME280;885;42.626;23.200;2023-02-22T08:20:22;108614.13;;;24.40;31.36
1776;BME280;885;42.626;23.200;2023-02-22T08:22:49;107877.75;;;24.61;30.42
1776;BME280;885;42.626;23.200;2023-02-22T08:25:20;105511.44;;;24.14;31.08
1776;BME280;885;42.626;23.200;2023-02-22T08:27:47;103814.56;;;23.78;31.33
1776;BME280;885;42.626;23.200;2023-02-22T08:30:17;96077.94;;;21.41;34.51
1776;BME280;885;42.626;23.200;2023-02-22T08:32:45;92465.47;;;20.21;34.88
1776;BME280;885;42.626;23.200;2023-02-22T08:35:13;92760.94;;;20.14;36.17
1776;BME280;885;42.626;23.200;2023-02-22T08:37:41;90001.19;;;19.27;35.41
1776;BME280;885;42.626;23.200;2023-02-22T08:40:09;90722.56;;;19.49;36.07
1776;BME280;885;42.626;23.200;2023-02-22T08:42:38;90992.53;;;19.58;36.17
1776;BME280;885;42.626;23.200;2023-02-22T08:45:05;89871.00;;;19.02;36.95
1776;BME280;885;42.626;23.200;2023-02-22T08:47:32;89463.13;;;18.93;36.34
1776;BME280;885;42.626;23.200;2023-02-22T08:49:59;88354.53;;;18.38;37.19
1776;BME280;885;42.626;23.200;2023-02-22T08:52:25;88258.47;;;18.27;37.70
1776;BME280;885;42.626;23.200;2023-02-22T08:54:52;87728.50;;;18.00;37.69
1776;BME280;885;42.626;23.200;2023-02-22T08:57:20;87347.47;;;17.68;38.90
1776;BME280;885;42.626;23.200;2023-02-22T08:59:48;87157.28;;;17.61;38.81
1776;BME280;885;42.626;23.200;2023-02-22T09:02:16;86574.44;;;17.24;39.46
1776;BME280;885;42.626;23.200;2023-02-22T09:04:44;87405.38;;;17.60;40.26
1776;BME280;885;42.626;23.200;2023-02-22T09:07:12;87082.63;;;17.59;38.80
1776;BME280;885;42.626;23.200;2023-02-22T09:09:41;87340.53;;;17.63;39.74
1776;BME280;885;42.626;23.200;2023-02-22T09:12:08;86889.16;;;17.35;40.01
1776;BME280;885;42.626;23.200;2023-02-22T09:14:36;87029.81;;;17.52;39.29
1776;BME280;885;42.626;23.200;2023-02-22T09:17:04;87192.34;;;17.64;39.08
1776;BME280;885;42.626;23.200;2023-02-22T09:19:31;86826.25;;;17.55;38.35
1776;BME280;885;42.626;23.200;2023-02-22T09:21:58;86877.56;;;17.50;39.10
1776;BME280;885;42.626;23.200;2023-02-22T09:24:26;87159.72;;;17.69;38.74
1776;BME280;885;42.626;23.200;2023-02-22T09:26:52;87201.56;;;17.66;39.21
1776;BME280;885;42.626;23.200;2023-02-22T09:29:20;87390.16;;;17.90;38.38
1776;BME280;885;42.626;23.200;2023-02-22T09:31:49;87544.34;;;18.00;37.71
1776;BME280;885;42.626;23.200;2023-02-22T09:34:19;86689.53;;;17.45;39.16
1776;BME280;885;42.626;23.200;2023-02-22T09:36:47;86777.94;;;17.57;38.23
1776;BME280;885;42.626;23.200;2023-02-22T09:39:16;86692.44;;;17.32;40.06
1776;BME280;885;42.626;23.200;2023-02-22T09:41:50;86736.78;;;17.48;38.95
1776;BME280;885;42.626;23.200;2023-02-22T09:44:23;86809.34;;;17.48;38.95
1776;BME280;885;42.626;23.200;2023-02-22T09:46:53;86533.88;;;17.40;38.69
1776;BME280;885;42.626;23.200;2023-02-22T09:49:27;86799.66;;;17.67;37.59
1776;BME280;885;42.626;23.200;2023-02-22T09:51:59;87370.72;;;17.91;38.30
1776;BME280;885;42.626;23.200;2023-02-22T09:54:31;86707.44;;;17.58;38.03
1776;BME280;885;42.626;23.200;2023-02-22T09:57:02;87149.72;;;17.93;37.25
1776;BME280;885;42.626;23.200;2023-02-22T09:59:32;87608.75;;;18.21;36.96
1776;BME280;885;42.626;23.200;2023-02-22T10:02:08;87507.28;;;18.21;36.72
1776;BME280;885;42.626;23.200;2023-02-22T10:04:44;87828.63;;;18.28;37.53
1776;BME280;885;42.626;23.200;2023-02-22T10:07:20;87326.91;;;18.03;37.36
1776;BME280;885;42.626;23.200;2023-02-22T10:09:51;86863.13;;;17.75;37.84
1776;BME280;885;42.626;23.200;2023-02-22T10:12:28;87685.06;;;18.20;37.67
1776;BME280;885;42.626;23.200;2023-02-22T10:15:27;87256.00;;;18.10;36.98
1776;BME280;885;42.626;23.200;2023-02-22T10:18:02;86980.31;;;18.00;36.46
1776;BME280;885;42.626;23.200;2023-02-22T10:20:43;87282.97;;;18.17;36.38
1776;BME280;885;42.626;23.200;2023-02-22T10:23:20;87735.16;;;18.42;36.44
1776;BME280;885;42.626;23.200;2023-02-22T10:25:55;88270.88;;;18.77;35.52
1776;BME280;885;42.626;23.200;2023-02-22T10:28:27;88542.31;;;19.02;34.67
1776;BME280;885;42.626;23.200;2023-02-22T10:31:03;89286.28;;;19.29;35.32
1776;BME280;885;42.626;23.200;2023-02-22T10:33:33;89024.06;;;19.19;35.04
1776;BME280;885;42.626;23.200;2023-02-22T10:36:04;88883.31;;;19.24;34.16
1776;BME280;885;42.626;23.200;2023-02-22T10:38:32;88707.81;;;19.12;34.66
1776;BME280;885;42.626;23.200;2023-02-22T10:41:03;88957.94;;;19.13;35.54
1776;BME280;885;42.626;23.200;2023-02-22T10:43:39;88980.22;;;19.15;35.69
1776;BME280;885;42.626;23.200;2023-02-22T10:46:10;88798.72;;;19.09;35.41
1776;BME280;885;42.626;23.200;2023-02-22T10:48:39;89761.81;;;19.59;35.31
1776;BME280;885;42.626;23.200;2023-02-22T10:51:09;89905.25;;;19.71;34.48
1776;BME280;885;42.626;23.200;2023-02-22T10:53:36;90160.53;;;19.88;34.23
1776;BME280;885;42.626;23.200;2023-02-22T10:56:11;90785.78;;;20.15;34.24
1776;BME280;885;42.626;23.200;2023-02-22T10:58:42;91044.47;;;20.34;33.65
1776;BME280;885;42.626;23.200;2023-02-22T11:01:27;90998.25;;;20.26;33.89
1776;BME280;885;42.626;23.200;2023-02-22T11:04:01;91586.78;;;20.57;33.46
1776;BME280;885;42.626;23.200;2023-02-22T11:06:31;91723.47;;;20.60;33.69
1776;BME280;885;42.626;23.200;2023-02-22T11:09:10;91246.19;;;20.46;33.40
1776;BME280;885;42.626;23.200;2023-02-22T11:11:39;90811.75;;;20.35;33.15
1776;BME280;885;42.626;23.200;2023-02-22T11:14:07;92075.28;;;20.83;33.27
1776;BME280;885;42.626;23.200;2023-02-22T11:16:36;92692.63;;;21.17;32.36
1776;BME280;885;42.626;23.200;2023-02-22T11:19:11;93401.22;;;21.52;31.73
1776;BME280;885;42.626;23.200;2023-02-22T11:21:41;93303.53;;;21.57;31.38
1776;BME280;885;42.626;23.200;2023-02-22T11:24:11;93527.19;;;21.71;30.96
1776;BME280;885;42.626;23.200;2023-02-22T11:26:41;93993.38;;;21.90;31.16
1776;BME280;885;42.626;23.200;2023-02-22T11:29:11;94133.84;;;22.02;30.73
1776;BME280;885;42.626;23.200;2023-02-22T11:31:41;95121.63;;;22.50;29.83
1776;BME280;885;42.626;23.200;2023-02-22T11:34:26;94484.25;;;22.35;29.53
1776;BME280;885;42.626;23.200;2023-02-22T11:36:54;95391.44;;;22.69;29.71
1776;BME280;885;42.626;23.200;2023-02-22T11:39:24;96214.81;;;23.04;29.03
1776;BME280;885;42.626;23.200;2023-02-22T11:41:54;96918.09;;;23.34;28.61
1776;BME280;885;42.626;23.200;2023-02-22T11:44:24;97188.72;;;23.51;28.30
1776;BME280;885;42.626;23.200;2023-02-22T11:46:53;97522.38;;;23.64;28.29
1776;BME280;885;42.626;23.200;2023-02-22T11:49:22;97332.63;;;23.58;27.97
1776;BME280;885;42.626;23.200;2023-02-22T11:52:00;94101.81;;;22.36;29.92
1776;BME280;885;42.626;23.200;2023-02-22T11:57:33;91430.75;;;21.18;31.37
1776;BME280;885;42.626;23.200;2023-02-22T12:00:14;91944.25;;;21.47;30.94
1776;BME280;885;42.626;23.200;2023-02-22T12:03:10;93665.47;;;22.29;29.77
1776;BME280;885;42.626;23.200;2023-02-22T12:05:51;95071.34;;;22.86;29.21
1776;BME280;885;42.626;23.200;2023-02-22T12:08:32;94828.38;;;22.79;29.44
1776;BME280;885;42.626;23.200;2023-02-22T12:11:06;94725.94;;;22.78;29.34
1776;BME280;885;42.626;23.200;2023-02-22T12:16:41;95859.22;;;23.34;28.21
1776;BME280;885;42.626;23.200;2023-02-22T12:19:18;95360.28;;;23.20;28.32
1776;BME280;885;42.626;23.200;2023-02-22T12:21:53;96106.56;;;23.57;27.66
1776;BME280;885;42.626;23.200;2023-02-22T12:24:24;96004.69;;;23.46;28.27
1776;BME280;885;42.626;23.200;2023-02-22T12:26:55;96559.13;;;23.78;27.55
1776;BME280;885;42.626;23.200;2023-02-22T12:29:28;95810.91;;;23.52;28.05
1776;BME280;885;42.626;23.200;2023-02-22T12:32:02;96279.44;;;23.64;28.12
1776;BME280;885;42.626;23.200;2023-02-22T12:34:33;96396.78;;;23.66;28.41
1776;BME280;885;42.626;23.200;2023-02-22T12:37:10;96350.94;;;23.77;27.83
1776;BME280;885;42.626;23.200;2023-02-22T12:39:46;97735.31;;;24.15;28.51
1776;BME280;885;42.626;23.200;2023-02-22T12:42:17;98128.53;;;24.36;27.80
1776;BME280;885;42.626;23.200;2023-02-22T12:44:52;97745.91;;;24.35;27.53
1776;BME280;885;42.626;23.200;2023-02-22T12:47:27;96224.16;;;23.64;28.62
1776;BME280;885;42.626;23.200;2023-02-22T12:50:04;96900.25;;;23.84;28.62
1776;BME280;885;42.626;23.200;2023-02-22T12:52:39;96102.44;;;23.60;28.83
1776;BME280;885;42.626;23.200;2023-02-22T12:55:13;98335.66;;;24.30;28.85
1776;BME280;885;42.626;23.200;2023-02-22T12:57:46;98171.66;;;24.30;28.54
1776;BME280;885;42.626;23.200;2023-02-22T13:00:16;97277.16;;;23.90;29.38
1776;BME280;885;42.626;23.200;2023-02-22T13:02:55;98207.81;;;24.27;29.00
1776;BME280;885;42.626;23.200;2023-02-22T13:05:22;99419.88;;;24.71;28.43
1776;BME280;885;42.626;23.200;2023-02-22T13:08:02;100290.44;;;25.01;28.09
1776;BME280;885;42.626;23.200;2023-02-22T13:10:39;99948.41;;;24.92;28.49
1776;BME280;885;42.626;23.200;2023-02-22T13:13:17;100379.63;;;25.13;27.89
1776;BME280;885;42.626;23.200;2023-02-22T13:15:54;99175.28;;;24.75;28.10
1776;BME280;885;42.626;23.200;2023-02-22T13:18:29;99189.28;;;24.77;28.30
1776;BME280;885;42.626;23.200;2023-02-22T13:21:00;99583.63;;;24.86;28.61
1776;BME280;885;42.626;23.200;2023-02-22T13:23:38;98658.50;;;24.58;28.80
1776;BME280;885;42.626;23.200;2023-02-22T13:26:15;99594.91;;;24.95;28.07
1776;BME280;885;42.626;23.200;2023-02-22T13:28:48;99065.66;;;24.80;28.41
1776;BME280;885;42.626;23.200;2023-02-22T13:31:28;100525.91;;;25.27;28.16
1776;BME280;885;42.626;23.200;2023-02-22T13:34:09;97959.59;;;24.53;27.97
1776;BME280;885;42.626;23.200;2023-02-22T13:36:51;94682.88;;;23.35;29.32
1776;BME280;885;42.626;23.200;2023-02-22T13:39:46;93638.66;;;22.74;30.87
1776;BME280;885;42.626;23.200;2023-02-22T13:42:47;94149.44;;;23.01;30.13
1776;BME280;885;42.626;23.200;2023-02-22T13:45:42;93807.25;;;23.00;29.79
1776;BME280;885;42.626;23.200;2023-02-22T13:48:35;95306.53;;;23.59;29.23
1776;BME280;885;42.626;23.200;2023-02-22T13:51:12;97202.53;;;24.29;28.76
1776;BME280;885;42.626;23.200;2023-02-22T13:53:49;98805.53;;;24.96;27.67